sensor_id;sensor_type;location;lat;lon;timestamp;P1;durP1;ratioP1;P2;durP2;ratioP2
16101;SDS011;56411;52.964;10.540;2024-01-30T05:05:20;24.03;;;13.70;;
16101;SDS011;56411;52.964;10.540;2024-01-30T05:07:47;22.93;;;13.53;;
16101;SDS011;56411;52.964;10.540;2024-01-30T05:10:14;23.00;;;14.30;;
16101;SDS011;56411;52.964;10.540;2024-01-30T05:12:46;23.37;;;13.77;;
16101;SDS011;56411;52.964;10.540;2024-01-30T05:15:57;27.50;;;14.60;;
16101;SDS011;56411;52.964;10.540;2024-01-30T05:18:43;25.67;;;14.30;;
16101;SDS011;56411;52.964;10.540;2024-01-30T07:23:25;29.00;;;17.33;;
16101;SDS011;56411;52.964;10.540;2024-01-30T07:26:51;30.73;;;18.50;;
16101;SDS011;56411;52.964;10.540;2024-01-30T08:47:07;26.23;;;15.50;;
16101;SDS011;56411;52.964;10.540;2024-01-30T08:53:01;26.83;;;15.50;;
16101;SDS011;56411;52.964;10.540;2024-01-30T09:01:24;27.50;;;14.87;;
16101;SDS011;56411;52.964;10.540;2024-01-30T09:04:04;28.87;;;15.83;;
16101;SDS011;56411;52.964;10.540;2024-01-30T09:27:39;23.93;;;14.50;;
16101;SDS011;56411;52.964;10.540;2024-01-30T09:49:51;20.60;;;13.13;;
16101;SDS011;56411;52.964;10.540;2024-01-30T09:55:50;21.50;;;13.77;;
16101;SDS011;56411;52.964;10.540;2024-01-30T10:00:56;24.20;;;14.87;;
16101;SDS011;56411;52.964;10.540;2024-01-30T10:02:11;22.23;;;13.50;;
16101;SDS011;56411;52.964;10.540;2024-01-30T10:08:42;22.73;;;12.13;;
16101;SDS011;56411;52.964;10.540;2024-01-30T10:21:27;20.50;;;11.83;;
16101;SDS011;56411;52.964;10.540;2024-01-30T10:23:56;19.83;;;11.70;;
16101;SDS011;56411;52.964;10.540;2024-01-30T10:33:23;17.30;;;10.40;;
16101;SDS011;56411;52.964;10.540;2024-01-30T10:49:57;16.17;;;8.93;;
16101;SDS011;56411;52.964;10.540;2024-01-30T11:17:31;16.20;;;8.37;;
16101;SDS011;56411;52.964;10.540;2024-01-30T11:20:19;17.33;;;8.70;;
16101;SDS011;56411;52.964;10.540;2024-01-30T11:40:03;18.43;;;9.03;;
16101;SDS011;56411;52.964;10.540;2024-01-30T11:49:23;15.97;;;8.40;;
16101;SDS011;56411;52.964;10.540;2024-01-30T12:36:33;16.93;;;9.33;;
16101;SDS011;56411;52.964;10.540;2024-01-30T16:23:02;17.30;;;10.53;;
16101;SDS011;56411;52.964;10.540;2024-01-30T16:25:39;15.67;;;9.57;;
16101;SDS011;56411;52.964;10.540;2024-01-30T16:28:23;17.93;;;10.47;;
16101;SDS011;56411;52.964;10.540;2024-01-30T16:31:25;21.17;;;12.53;;
16101;SDS011;56411;52.964;10.540;2024-01-30T16:34:14;17.10;;;10.63;;
16101;SDS011;56411;52.964;10.540;2024-01-30T16:36:44;19.17;;;11.03;;
16101;SDS011;56411;52.964;10.540;2024-01-30T16:39:27;21.02;;;11.25;;
16101;SDS011;56411;52.964;10.540;2024-01-30T16:42:16;20.17;;;10.93;;
16101;SDS011;56411;52.964;10.540;2024-01-30T16:48:01;18.30;;;10.73;;
16101;SDS011;56411;52.964;10.540;2024-01-30T17:21:46;20.60;;;12.75;;
16101;SDS011;56411;52.964;10.540;2024-01-30T17:24:14;20.20;;;11.53;;
16101;SDS011;56411;52.964;10.540;2024-01-30T17:26:41;18.80;;;10.50;;
16101;SDS011;56411;52.964;10.540;2024-01-30T17:29:10;16.63;;;10.03;;
16101;SDS011;56411;52.964;10.540;2024-01-30T17:31:41;16.30;;;9.83;;
16101;SDS011;56411;52.964;10.540;2024-01-30T17:34:11;16.37;;;10.43;;
16101;SDS011;56411;52.964;10.540;2024-01-30T17:36:38;17.50;;;10.90;;
16101;SDS011;56411;52.964;10.540;2024-01-30T17:39:07;17.03;;;10.47;;
16101;SDS011;56411;52.964;10.540;2024-01-30T17:41:34;18.43;;;11.10;;
16101;SDS011;56411;52.964;10.540;2024-01-30T17:44:01;19.70;;;11.47;;
16101;SDS011;56411;52.964;10.540;2024-01-30T17:46:29;18.43;;;10.97;;
16101;SDS011;56411;52.964;10.540;2024-01-30T17:48:56;18.43;;;11.50;;
16101;SDS011;56411;52.964;10.540;2024-01-30T17:51:24;18.07;;;11.47;;
16101;SDS011;56411;52.964;10.540;2024-01-30T17:53:51;20.40;;;12.00;;
16101;SDS011;56411;52.964;10.540;2024-01-30T17:56:21;18.80;;;11.00;;
16101;SDS011;56411;52.964;10.540;2024-01-30T17:58:48;20.27;;;11.77;;
16101;SDS011;56411;52.964;10.540;2024-01-30T18:01:16;19.07;;;11.03;;
16101;SDS011;56411;52.964;10.540;2024-01-30T18:03:43;18.63;;;10.93;;
16101;SDS011;56411;52.964;10.540;2024-01-30T18:06:13;20.20;;;11.53;;
16101;SDS011;56411;52.964;10.540;2024-01-30T18:08:41;19.03;;;11.30;;
16101;SDS011;56411;52.964;10.540;2024-01-30T18:11:09;19.60;;;11.70;;
16101;SDS011;56411;52.964;10.540;2024-01-30T18:13:38;18.38;;;11.13;;
16101;SDS011;56411;52.964;10.540;2024-01-30T18:16:06;18.93;;;10.63;;
16101;SDS011;56411;52.964;10.540;2024-01-30T18:18:33;19.65;;;11.10;;
16101;SDS011;56411;52.964;10.540;2024-01-30T18:21:01;18.50;;;11.67;;
16101;SDS011;56411;52.964;10.540;2024-01-30T18:23:28;20.63;;;11.33;;
16101;SDS011;56411;52.964;10.540;2024-01-30T18:25:56;20.10;;;11.40;;
16101;SDS011;56411;52.964;10.540;2024-01-30T18:28:26;19.17;;;11.17;;
16101;SDS011;56411;52.964;10.540;2024-01-30T18:30:57;18.27;;;11.17;;
16101;SDS011;56411;52.964;10.540;2024-01-30T18:33:24;19.80;;;11.83;;
16101;SDS011;56411;52.964;10.540;2024-01-30T18:35:52;19.47;;;11.90;;
16101;SDS011;56411;52.964;10.540;2024-01-30T18:38:20;18.60;;;11.83;;
16101;SDS011;56411;52.964;10.540;2024-01-30T18:40:47;19.57;;;11.57;;
16101;SDS011;56411;52.964;10.540;2024-01-30T18:43:15;25.63;;;15.90;;
16101;SDS011;56411;52.964;10.540;2024-01-30T18:45:42;37.30;;;22.57;;
16101;SDS011;56411;52.964;10.540;2024-01-30T18:48:22;26.73;;;15.40;;
16101;SDS011;56411;52.964;10.540;2024-01-30T18:51:05;20.13;;;13.30;;
16101;SDS011;56411;52.964;10.540;2024-01-30T18:53:33;21.43;;;12.80;;
16101;SDS011;56411;52.964;10.540;2024-01-30T18:56:01;18.20;;;11.50;;
16101;SDS011;56411;52.964;10.540;2024-01-30T18:58:30;18.23;;;12.20;;
16101;SDS011;56411;52.964;10.540;2024-01-30T19:00:58;19.73;;;12.53;;
16101;SDS011;56411;52.964;10.540;2024-01-30T19:03:28;19.33;;;11.97;;
16101;SDS011;56411;52.964;10.540;2024-01-30T19:05:57;17.63;;;11.33;;
16101;SDS011;56411;52.964;10.540;2024-01-30T19:08:44;22.23;;;11.70;;
16101;SDS011;56411;52.964;10.540;2024-01-30T19:11:23;19.10;;;11.53;;
16101;SDS011;56411;52.964;10.540;2024-01-30T19:14:10;19.93;;;11.70;;
16101;SDS011;56411;52.964;10.540;2024-01-30T19:16:46;18.80;;;10.63;;
16101;SDS011;56411;52.964;10.540;2024-01-30T19:19:18;22.43;;;11.27;;
16101;SDS011;56411;52.964;10.540;2024-01-30T19:21:45;19.17;;;10.40;;
16101;SDS011;56411;52.964;10.540;2024-01-30T19:24:13;16.10;;;9.90;;
16101;SDS011;56411;52.964;10.540;2024-01-30T19:26:39;19.13;;;10.57;;
16101;SDS011;56411;52.964;10.540;2024-01-30T19:29:06;15.87;;;10.03;;
16101;SDS011;56411;52.964;10.540;2024-01-30T19:31:33;17.70;;;9.17;;
16101;SDS011;56411;52.964;10.540;2024-01-30T19:34:00;16.23;;;9.90;;
16101;SDS011;56411;52.964;10.540;2024-01-30T19:36:30;16.03;;;10.27;;
16101;SDS011;56411;52.964;10.540;2024-01-30T19:38:58;17.50;;;9.90;;
16101;SDS011;56411;52.964;10.540;2024-01-30T19:41:26;16.87;;;9.70;;
16101;SDS011;56411;52.964;10.540;2024-01-30T19:43:55;17.67;;;10.70;;
16101;SDS011;56411;52.964;10.540;2024-01-30T19:46:22;15.83;;;9.70;;
16101;SDS011;56411;52.964;10.540;2024-01-30T19:55:17;16.73;;;10.03;;
16101;SDS011;56411;52.964;10.540;2024-01-30T19:57:45;17.83;;;9.83;;
16101;SDS011;56411;52.964;10.540;2024-01-30T20:00:14;15.73;;;8.97;;
16101;SDS011;56411;52.964;10.540;2024-01-30T20:02:45;16.20;;;9.60;;
16101;SDS011;56411;52.964;10.540;2024-01-30T20:06:02;17.80;;;8.90;;
16101;SDS011;56411;52.964;10.540;2024-01-30T20:08:31;16.03;;;9.43;;
16101;SDS011;56411;52.964;10.540;2024-01-30T20:11:02;15.83;;;9.53;;
16101;SDS011;56411;52.964;10.540;2024-01-30T20:13:42;15.93;;;8.80;;
16101;SDS011;56411;52.964;10.540;2024-01-30T20:16:11;12.23;;;6.10;;
16101;SDS011;56411;52.964;10.540;2024-01-30T20:18:41;12.13;;;5.67;;
16101;SDS011;56411;52.964;10.540;2024-01-30T20:25:12;9.67;;;4.93;;
16101;SDS011;56411;52.964;10.540;2024-01-30T20:27:42;9.63;;;4.50;;
16101;SDS011;56411;52.964;10.540;2024-01-30T20:30:11;9.17;;;4.77;;
16101;SDS011;56411;52.964;10.540;2024-01-30T20:32:47;9.20;;;4.10;;
16101;SDS011;56411;52.964;10.540;2024-01-30T20:35:32;8.73;;;4.40;;
16101;SDS011;56411;52.964;10.540;2024-01-30T20:38:02;9.77;;;4.40;;
16101;SDS011;56411;52.964;10.540;2024-01-30T20:40:29;7.33;;;3.43;;
16101;SDS011;56411;52.964;10.540;2024-01-30T20:43:07;7.67;;;3.80;;
16101;SDS011;56411;52.964;10.540;2024-01-30T20:45:39;8.70;;;3.87;;
16101;SDS011;56411;52.964;10.540;2024-01-30T20:48:53;8.37;;;3.53;;
16101;SDS011;56411;52.964;10.540;2024-01-30T20:51:40;7.00;;;3.40;;
16101;SDS011;56411;52.964;10.540;2024-01-30T20:54:16;7.30;;;3.70;;
16101;SDS011;56411;52.964;10.540;2024-01-30T20:57:03;9.03;;;3.67;;
16101;SDS011;56411;52.964;10.540;2024-01-30T20:59:34;8.43;;;3.77;;
16101;SDS011;56411;52.964;10.540;2024-01-30T21:02:02;9.47;;;4.00;;
16101;SDS011;56411;52.964;10.540;2024-01-30T21:04:30;10.03;;;4.37;;
16101;SDS011;56411;52.964;10.540;2024-01-30T21:07:07;9.13;;;3.90;;
16101;SDS011;56411;52.964;10.540;2024-01-30T21:09:36;12.03;;;4.70;;
16101;SDS011;56411;52.964;10.540;2024-01-30T21:12:20;10.63;;;4.47;;
16101;SDS011;56411;52.964;10.540;2024-01-30T21:14:49;8.47;;;4.40;;
16101;SDS011;56411;52.964;10.540;2024-01-30T21:17:21;9.93;;;4.20;;
16101;SDS011;56411;52.964;10.540;2024-01-30T21:19:50;9.93;;;4.70;;
16101;SDS011;56411;52.964;10.540;2024-01-30T21:22:21;9.00;;;4.07;;
16101;SDS011;56411;52.964;10.540;2024-01-30T21:24:49;10.30;;;4.40;;
16101;SDS011;56411;52.964;10.540;2024-01-30T21:27:18;11.10;;;4.77;;
16101;SDS011;56411;52.964;10.540;2024-01-30T21:29:51;10.93;;;4.70;;
16101;SDS011;56411;52.964;10.540;2024-01-30T21:32:54;10.53;;;4.63;;
16101;SDS011;56411;52.964;10.540;2024-01-30T21:35:28;10.60;;;4.50;;
16101;SDS011;56411;52.964;10.540;2024-01-30T21:38:01;11.70;;;5.50;;
16101;SDS011;56411;52.964;10.540;2024-01-30T21:40:30;10.03;;;4.77;;
16101;SDS011;56411;52.964;10.540;2024-01-30T21:42:58;10.17;;;5.00;;
16101;SDS011;56411;52.964;10.540;2024-01-30T21:45:33;10.90;;;5.20;;
16101;SDS011;56411;52.964;10.540;2024-01-30T21:48:00;11.03;;;5.07;;
16101;SDS011;56411;52.964;10.540;2024-01-30T21:50:31;11.73;;;5.27;;
16101;SDS011;56411;52.964;10.540;2024-01-30T21:53:15;11.33;;;5.20;;
16101;SDS011;56411;52.964;10.540;2024-01-30T21:55:55;11.10;;;5.30;;
16101;SDS011;56411;52.964;10.540;2024-01-30T21:58:25;14.03;;;5.23;;
16101;SDS011;56411;52.964;10.540;2024-01-30T22:01:07;12.20;;;5.77;;
16101;SDS011;56411;52.964;10.540;2024-01-30T22:03:38;11.43;;;5.30;;
16101;SDS011;56411;52.964;10.540;2024-01-30T22:06:10;11.70;;;5.60;;
16101;SDS011;56411;52.964;10.540;2024-01-30T22:08:49;11.93;;;5.60;;
16101;SDS011;56411;52.964;10.540;2024-01-30T22:11:21;11.97;;;5.83;;
16101;SDS011;56411;52.964;10.540;2024-01-30T22:14:38;12.73;;;6.00;;
16101;SDS011;56411;52.964;10.540;2024-01-30T22:17:27;13.17;;;5.93;;
16101;SDS011;56411;52.964;10.540;2024-01-30T22:19:59;13.27;;;6.37;;
16101;SDS011;56411;52.964;10.540;2024-01-30T22:22:28;12.33;;;6.27;;
16101;SDS011;56411;52.964;10.540;2024-01-30T22:24:58;14.27;;;6.60;;
16101;SDS011;56411;52.964;10.540;2024-01-30T22:27:27;13.67;;;6.53;;
16101;SDS011;56411;52.964;10.540;2024-01-30T22:29:57;12.60;;;6.40;;
16101;SDS011;56411;52.964;10.540;2024-01-30T22:32:29;12.90;;;6.53;;
16101;SDS011;56411;52.964;10.540;2024-01-30T22:34:58;12.07;;;6.00;;
16101;SDS011;56411;52.964;10.540;2024-01-30T22:37:31;12.03;;;5.70;;
16101;SDS011;56411;52.964;10.540;2024-01-30T22:40:02;12.37;;;5.50;;
16101;SDS011;56411;52.964;10.540;2024-01-30T22:42:48;11.90;;;5.73;;
16101;SDS011;56411;52.964;10.540;2024-01-30T22:45:16;12.13;;;5.70;;
16101;SDS011;56411;52.964;10.540;2024-01-30T22:47:45;10.93;;;4.90;;
16101;SDS011;56411;52.964;10.540;2024-01-30T22:50:14;10.53;;;4.77;;
16101;SDS011;56411;52.964;10.540;2024-01-30T22:52:42;10.73;;;4.63;;
16101;SDS011;56411;52.964;10.540;2024-01-30T22:55:09;9.93;;;4.03;;
16101;SDS011;56411;52.964;10.540;2024-01-30T22:57:42;10.53;;;4.33;;
16101;SDS011;56411;52.964;10.540;2024-01-30T23:00:21;9.67;;;4.23;;
16101;SDS011;56411;52.964;10.540;2024-01-30T23:03:12;9.83;;;3.83;;
16101;SDS011;56411;52.964;10.540;2024-01-30T23:05:44;10.13;;;4.07;;
16101;SDS011;56411;52.964;10.540;2024-01-30T23:08:13;8.43;;;3.57;;
16101;SDS011;56411;52.964;10.540;2024-01-30T23:10:44;9.30;;;4.03;;
16101;SDS011;56411;52.964;10.540;2024-01-30T23:13:23;9.77;;;3.90;;
16101;SDS011;56411;52.964;10.540;2024-01-30T23:15:55;7.90;;;3.47;;
16101;SDS011;56411;52.964;10.540;2024-01-30T23:18:25;8.53;;;3.97;;
16101;SDS011;56411;52.964;10.540;2024-01-30T23:20:53;9.10;;;3.73;;
16101;SDS011;56411;52.964;10.540;2024-01-30T23:23:25;8.60;;;3.77;;
16101;SDS011;56411;52.964;10.540;2024-01-30T23:26:01;8.23;;;3.87;;
16101;SDS011;56411;52.964;10.540;2024-01-30T23:28:33;9.73;;;4.37;;
16101;SDS011;56411;52.964;10.540;2024-01-30T23:31:16;10.10;;;4.30;;
16101;SDS011;56411;52.964;10.540;2024-01-30T23:36:35;9.57;;;4.13;;
16101;SDS011;56411;52.964;10.540;2024-01-30T23:39:13;8.90;;;3.90;;
16101;SDS011;56411;52.964;10.540;2024-01-30T23:41:41;9.23;;;3.90;;
16101;SDS011;56411;52.964;10.540;2024-01-30T23:44:08;8.70;;;3.67;;
16101;SDS011;56411;52.964;10.540;2024-01-30T23:46:35;9.03;;;4.13;;
16101;SDS011;56411;52.964;10.540;2024-01-30T23:49:05;8.90;;;3.53;;
16101;SDS011;56411;52.964;10.540;2024-01-30T23:51:33;7.20;;;3.37;;
16101;SDS011;56411;52.964;10.540;2024-01-30T23:54:04;7.60;;;3.07;;
16101;SDS011;56411;52.964;10.540;2024-01-30T23:56:37;7.37;;;2.93;;
16101;SDS011;56411;52.964;10.540;2024-01-30T23:59:05;5.10;;;2.73;;
